Time;durP1;ratioP1;P1;durP2;ratioP2;P2;SDS_P1;SDS_P2;PMS_P1;PMS_P2;Temp;Humidity;BMP_temperature;BMP_pressure;BME280_temperature;BME280_humidity;BME280_pressure;Samples;Min_cycle;Max_cycle;Signal;HPM_P1;HPM_P2
2023/03/17 00:00:14;;;;;;;3.77;2.53;;;7.40;1.00;;;;;;5004264;28;20232;-82
2023/03/17 00:02:42;;;;;;;4.00;2.50;;;7.30;1.00;;;;;;5020802;28;20251;-82
2023/03/17 00:05:18;;;;;;;4.47;2.70;;;7.20;1.00;;;;;;5014931;28;20215;-82
2023/03/17 00:07:47;;;;;;;4.00;2.90;;;7.10;1.00;;;;;;5025231;28;20226;-82
2023/03/17 00:10:16;;;;;;;3.67;2.43;;;7.20;1.00;;;;;;5013041;28;20201;-82
2023/03/17 00:12:44;;;;;;;4.47;2.93;;;7.20;1.00;;;;;;5022095;28;20263;-83
2023/03/17 00:15:13;;;;;;;4.37;2.60;;;7.10;1.00;;;;;;5020717;28;20204;-83
2023/03/17 00:17:41;;;;;;;5.30;2.80;;;7.20;1.00;;;;;;5006514;28;20216;-82
2023/03/17 00:20:23;;;;;;;3.30;2.60;;;7.20;1.00;;;;;;5022548;28;20236;-82
2023/03/17 00:22:50;;;;;;;4.37;2.57;;;7.20;1.00;;;;;;5008245;28;20243;-83
2023/03/17 00:25:21;;;;;;;5.60;2.77;;;7.20;1.00;;;;;;5019670;28;20214;-83
2023/03/17 00:27:48;;;;;;;3.67;2.60;;;7.20;1.00;;;;;;5021869;28;20232;-83
2023/03/17 00:30:17;;;;;;;7.43;3.20;;;7.20;1.00;;;;;;5011058;28;20204;-83
2023/03/17 00:32:45;;;;;;;4.63;2.90;;;7.10;1.00;;;;;;5014168;28;20235;-82
2023/03/17 00:35:21;;;;;;;4.27;3.00;;;7.10;1.00;;;;;;5002808;28;20220;-83
2023/03/17 00:37:51;;;;;;;4.87;3.10;;;7.00;1.00;;;;;;5018089;28;20613;-83
2023/03/17 00:40:21;;;;;;;5.47;2.87;;;7.20;1.00;;;;;;5006339;28;20207;-83
2023/03/17 00:42:48;;;;;;;4.23;3.17;;;7.20;1.00;;;;;;5014631;28;20640;-82
2023/03/17 00:45:16;;;;;;;5.37;2.70;;;7.20;1.00;;;;;;5008970;28;20587;-82
2023/03/17 00:47:44;;;;;;;4.73;3.00;;;7.20;1.00;;;;;;5003839;28;20205;-82
2023/03/17 00:50:14;;;;;;;6.87;3.13;;;7.20;1.00;;;;;;5021692;28;20204;-82
2023/03/17 00:52:42;;;;;;;5.33;2.73;;;7.20;1.00;;;;;;5010374;28;20224;-82
2023/03/17 00:55:10;;;;;;;3.73;2.80;;;7.10;29.40;;;;;;5009461;28;20230;-82
2023/03/17 00:57:38;;;;;;;4.07;3.20;;;7.10;14.40;;;;;;5011098;28;20698;-81
2023/03/17 01:00:07;;;;;;;4.77;2.93;;;7.10;1.00;;;;;;5028907;28;20200;-82
2023/03/17 01:02:35;;;;;;;5.03;3.10;;;7.10;1.00;;;;;;5021627;28;20220;-81
2023/03/17 01:05:03;;;;;;;6.83;3.30;;;7.20;1.00;;;;;;5022811;28;20204;-82
2023/03/17 01:07:30;;;;;;;5.00;2.77;;;7.10;1.00;;;;;;5018791;28;20208;-82
2023/03/17 01:09:57;;;;;;;6.77;3.33;;;7.00;99.90;;;;;;5012400;28;20201;-82
2023/03/17 01:12:23;;;;;;;6.67;3.77;;;7.00;99.90;;;;;;5012071;28;20221;-82
2023/03/17 01:14:51;;;;;;;4.90;3.00;;;7.30;1.00;;;;;;5001683;28;20193;-82
2023/03/17 01:17:18;;;;;;;4.33;3.10;;;7.20;10.20;;;;;;5014929;28;20215;-82
2023/03/17 01:19:47;;;;;;;5.73;3.67;;;7.30;1.00;;;;;;5006348;28;20212;-82
2023/03/17 01:22:14;;;;;;;4.77;3.13;;;7.30;1.00;;;;;;5014314;28;20251;-82
2023/03/17 01:24:42;;;;;;;6.40;3.50;;;7.40;1.00;;;;;;5012955;28;20201;-82
2023/03/17 01:27:09;;;;;;;5.83;3.10;;;7.40;1.00;;;;;;5020271;28;20235;-81
2023/03/17 01:29:36;;;;;;;4.43;3.07;;;7.20;78.50;;;;;;5018808;28;20219;-82
2023/03/17 01:32:03;;;;;;;6.60;3.37;;;7.30;1.00;;;;;;5012550;28;20314;-82
2023/03/17 01:34:30;;;;;;;5.07;3.17;;;7.20;99.90;;;;;;5009166;28;20492;-82
2023/03/17 01:36:58;;;;;;;9.67;3.87;;;7.40;1.00;;;;;;5011736;28;20301;-82
2023/03/17 01:39:26;;;;;;;7.20;3.40;;;7.30;1.00;;;;;;5021410;28;20207;-82
2023/03/17 01:41:56;;;;;;;6.50;3.20;;;7.40;1.00;;;;;;5010778;28;20216;-82
2023/03/17 01:44:24;;;;;;;5.20;3.10;;;7.70;1.00;;;;;;5019026;28;20208;-82
2023/03/17 01:46:51;;;;;;;5.63;3.50;;;7.50;1.00;;;;;;5005927;28;20292;-82
2023/03/17 01:49:29;;;;;;;5.73;3.20;;;7.60;1.00;;;;;;5019056;28;20204;-82
2023/03/17 01:52:04;;;;;;;5.13;3.17;;;7.50;1.00;;;;;;5014303;28;20227;-82
2023/03/17 01:54:36;;;;;;;6.33;3.60;;;7.60;1.00;;;;;;5010570;28;20211;-82
2023/03/17 01:57:10;;;;;;;4.60;2.90;;;7.50;1.00;;;;;;5017904;28;20209;-82
2023/03/17 01:59:42;;;;;;;5.93;3.33;;;7.30;16.60;;;;;;5005783;28;20219;-82
2023/03/17 02:02:14;;;;;;;5.87;3.17;;;7.30;99.90;;;;;;5012001;28;20688;-82
2023/03/17 02:04:42;;;;;;;4.50;3.07;;;7.40;1.00;;;;;;5021372;28;20212;-82
2023/03/17 02:07:11;;;;;;;6.17;3.20;;;7.40;1.00;;;;;;5020426;28;20206;-82
2023/03/17 02:09:38;;;;;;;4.87;3.20;;;7.20;95.50;;;;;;5013229;28;20555;-82
2023/03/17 02:12:08;;;;;;;6.77;3.30;;;7.30;89.60;;;;;;5010270;28;20633;-82
2023/03/17 02:14:35;;;;;;;5.13;3.20;;;7.40;1.00;;;;;;5008125;28;20235;-82
2023/03/17 02:17:02;;;;;;;8.13;3.70;;;7.20;99.90;;;;;;5020618;28;20232;-82
2023/03/17 02:19:29;;;;;;;6.27;3.40;;;7.20;99.90;;;;;;5024357;28;20292;-82
2023/03/17 02:21:59;;;;;;;5.30;3.43;;;7.30;53.80;;;;;;5020832;28;20218;-82
2023/03/17 02:24:31;;;;;;;4.97;3.40;;;7.50;1.00;;;;;;5026601;28;20228;-82
2023/03/17 02:27:03;;;;;;;5.87;3.60;;;7.50;1.00;;;;;;5026017;28;20208;-82
2023/03/17 02:29:33;;;;;;;5.70;3.63;;;7.50;1.00;;;;;;5011872;28;20200;-82
2023/03/17 02:32:00;;;;;;;6.33;3.43;;;7.30;1.00;;;;;;5015772;28;20603;-82
2023/03/17 02:34:27;;;;;;;5.00;3.50;;;7.30;1.00;;;;;;5005026;28;20217;-82
2023/03/17 02:36:54;;;;;;;6.77;3.80;;;7.30;60.90;;;;;;5009109;28;20567;-82
2023/03/17 02:39:22;;;;;;;5.93;3.43;;;7.60;1.00;;;;;;5005112;28;20201;-82
2023/03/17 02:41:49;;;;;;;8.00;3.57;;;7.50;1.00;;;;;;5005061;28;20315;-82
2023/03/17 02:44:16;;;;;;;5.17;3.40;;;7.40;1.00;;;;;;5009311;28;20283;-82
2023/03/17 02:46:43;;;;;;;6.30;3.43;;;7.40;1.00;;;;;;5015657;28;20669;-82
2023/03/17 02:49:10;;;;;;;6.17;3.43;;;7.40;1.00;;;;;;5012816;28;20283;-82
2023/03/17 02:51:37;;;;;;;7.47;3.70;;;7.30;1.00;;;;;;5008745;28;20247;-82
2023/03/17 02:54:04;;;;;;;5.93;3.57;;;7.40;1.00;;;;;;5020432;28;20288;-82
2023/03/17 02:56:33;;;;;;;6.37;3.60;;;7.40;1.00;;;;;;5014011;28;20204;-82
2023/03/17 02:58:59;;;;;;;6.20;3.40;;;7.30;1.00;;;;;;5022360;28;20212;-82
2023/03/17 03:01:28;;;;;;;5.47;3.27;;;7.30;72.70;;;;;;5025466;28;20639;-82
2023/03/17 03:03:55;;;;;;;8.90;3.60;;;7.40;4.30;;;;;;5018307;28;20370;-82
2023/03/17 03:06:22;;;;;;;6.57;3.57;;;7.40;99.90;;;;;;5020318;28;20197;-82
2023/03/17 03:08:49;;;;;;;4.73;3.27;;;7.40;68.20;;;;;;5025158;28;20203;-82
2023/03/17 03:11:17;;;;;;;6.77;3.80;;;7.40;57.60;;;;;;5025223;28;20306;-82
2023/03/17 03:13:45;;;;;;;6.97;3.83;;;7.30;99.90;;;;;;5007716;28;20681;-82
2023/03/17 03:16:12;;;;;;;8.30;3.77;;;7.30;99.90;;;;;;5007104;28;20205;-82
2023/03/17 03:18:39;;;;;;;9.57;3.40;;;7.40;99.90;;;;;;5005474;28;20607;-82
2023/03/17 03:21:06;;;;;;;6.60;3.37;;;7.30;99.90;;;;;;5004979;28;20225;-82
2023/03/17 03:23:33;;;;;;;6.03;3.57;;;7.60;1.00;;;;;;5019252;28;20207;-82
2023/03/17 03:26:00;;;;;;;5.53;3.47;;;7.60;1.00;;;;;;5023932;28;20205;-82
2023/03/17 03:28:26;;;;;;;6.87;3.53;;;7.50;1.00;;;;;;5023835;28;20295;-82
2023/03/17 03:30:55;;;;;;;7.37;3.37;;;7.40;1.00;;;;;;5008149;28;20269;-82
2023/03/17 03:33:22;;;;;;;6.63;3.50;;;7.40;93.10;;;;;;5005519;28;20315;-82
2023/03/17 03:35:48;;;;;;;4.50;3.33;;;7.60;1.00;;;;;;5014194;28;20231;-82
2023/03/17 03:38:15;;;;;;;5.20;3.00;;;7.60;1.00;;;;;;5012849;28;20223;-82
2023/03/17 03:40:42;;;;;;;5.10;2.97;;;7.30;57.50;;;;;;5006234;28;20211;-82
2023/03/17 03:43:09;;;;;;;5.63;3.60;;;7.00;99.90;;;;;;5010333;28;20207;-82
2023/03/17 03:45:35;;;;;;;5.63;3.53;;;7.30;71.90;;;;;;5005821;28;20219;-82
2023/03/17 03:48:04;;;;;;;5.67;3.47;;;7.20;99.90;;;;;;5019461;28;20205;-82
2023/03/17 03:50:31;;;;;;;4.77;3.00;;;7.30;99.90;;;;;;5006228;28;20602;-82
2023/03/17 03:52:58;;;;;;;5.97;3.33;;;7.10;99.90;;;;;;5025579;28;20274;-82
2023/03/17 03:55:24;;;;;;;6.50;3.80;;;7.20;81.50;;;;;;5024071;28;20283;-82
2023/03/17 03:57:51;;;;;;;6.33;3.77;;;7.30;1.60;;;;;;5033271;28;20663;-82
2023/03/17 04:00:18;;;;;;;5.97;3.43;;;7.20;49.50;;;;;;5040526;28;20203;-82
2023/03/17 04:02:45;;;;;;;5.17;3.03;;;7.10;99.90;;;;;;5016295;28;20278;-82
2023/03/17 04:05:14;;;;;;;5.33;3.53;;;7.10;99.90;;;;;;5033725;28;20736;-82
2023/03/17 04:07:42;;;;;;;5.97;3.30;;;7.60;1.00;;;;;;5029859;28;20200;-82
2023/03/17 04:10:10;;;;;;;5.00;3.20;;;7.30;1.00;;;;;;5032986;28;20214;-82
2023/03/17 04:12:37;;;;;;;5.77;3.70;;;7.00;99.90;;;;;;5025861;28;20220;-81
2023/03/17 04:15:05;;;;;;;5.13;3.20;;;7.20;43.50;;;;;;5033779;28;20202;-82
2023/03/17 04:17:32;;;;;;;6.70;3.30;;;7.30;99.90;;;;;;5013329;28;20215;-81
2023/03/17 04:19:59;;;;;;;6.50;3.33;;;7.30;1.00;;;;;;5023056;28;20206;-82
2023/03/17 04:22:27;;;;;;;5.17;3.07;;;7.30;13.10;;;;;;5010126;28;20288;-82
2023/03/17 04:24:54;;;;;;;7.80;3.60;;;7.40;1.00;;;;;;5035095;28;20283;-82
2023/03/17 04:27:21;;;;;;;5.77;3.10;;;7.60;1.00;;;;;;5034905;28;20219;-82
2023/03/17 04:29:48;;;;;;;7.40;3.50;;;7.50;1.00;;;;;;5019687;28;20201;-84
2023/03/17 04:32:15;;;;;;;5.13;3.20;;;7.50;1.00;;;;;;5015629;28;20311;-82
2023/03/17 04:34:42;;;;;;;5.20;3.17;;;7.40;1.00;;;;;;5014520;28;20228;-83
2023/03/17 04:37:10;;;;;;;5.83;3.87;;;7.30;1.00;;;;;;5022176;28;20647;-83
2023/03/17 04:39:39;;;;;;;5.20;3.33;;;7.20;1.00;;;;;;5021391;28;20212;-83
2023/03/17 04:42:06;;;;;;;6.40;3.20;;;7.20;1.00;;;;;;5022572;28;20652;-83
2023/03/17 04:44:33;;;;;;;5.20;3.40;;;7.30;1.00;;;;;;5021923;28;20204;-83
2023/03/17 04:47:00;;;;;;;4.93;3.30;;;7.50;1.00;;;;;;5020348;28;20193;-83
2023/03/17 04:49:27;;;;;;;5.73;3.50;;;7.70;1.00;;;;;;5021809;28;20207;-82
2023/03/17 04:51:54;;;;;;;4.97;3.07;;;7.70;1.00;;;;;;5014290;28;20228;-83
2023/03/17 04:54:21;;;;;;;4.97;3.23;;;7.50;1.00;;;;;;5022253;28;20328;-83
2023/03/17 04:56:49;;;;;;;6.80;3.77;;;7.30;1.00;;;;;;5022286;28;20268;-83
2023/03/17 04:59:16;;;;;;;6.83;4.00;;;7.10;1.00;;;;;;5020253;28;20208;-82
2023/03/17 05:01:43;;;;;;;24.03;12.20;;;7.10;1.00;;;;;;5020236;28;20288;-83
2023/03/17 05:04:10;;;;;;;8.77;4.93;;;7.10;1.00;;;;;;5020943;28;20207;-83
2023/03/17 05:06:37;;;;;;;4.67;3.00;;;6.90;99.90;;;;;;5020592;28;20201;-83
2023/03/17 05:09:04;;;;;;;7.77;3.47;;;7.00;99.90;;;;;;5021204;28;20223;-83
2023/03/17 05:11:31;;;;;;;7.30;3.53;;;6.80;99.90;;;;;;5020298;28;20586;-82
2023/03/17 05:13:59;;;;;;;5.73;3.30;;;6.70;99.90;;;;;;5024211;28;20223;-81
2023/03/17 05:16:26;;;;;;;7.10;3.73;;;6.90;99.90;;;;;;5012657;28;20204;-80
2023/03/17 05:18:54;;;;;;;5.33;3.50;;;6.90;99.90;;;;;;5017527;28;20211;-81
2023/03/17 05:21:21;;;;;;;5.97;3.43;;;7.10;50.80;;;;;;5024008;28;20256;-80
2023/03/17 05:23:48;;;;;;;5.73;3.53;;;7.00;1.00;;;;;;5011958;28;20209;-82
2023/03/17 05:26:15;;;;;;;6.53;3.63;;;7.00;1.00;;;;;;5019154;28;20211;-81
2023/03/17 05:28:41;;;;;;;5.73;3.30;;;7.00;1.00;;;;;;5015177;28;20204;-82
2023/03/17 05:31:10;;;;;;;5.00;3.20;;;6.90;48.80;;;;;;5017831;28;20232;-82
2023/03/17 05:33:37;;;;;;;5.97;3.83;;;6.70;99.90;;;;;;5016875;28;20228;-81
2023/03/17 05:36:04;;;;;;;6.90;3.60;;;6.40;99.90;;;;;;5020147;28;20204;-81
2023/03/17 05:38:31;;;;;;;5.33;3.30;;;6.60;99.90;;;;;;5014075;28;20208;-84
2023/03/17 05:40:58;;;;;;;8.90;4.73;;;6.60;99.90;;;;;;5024803;28;20726;-83
2023/03/17 05:43:25;;;;;;;5.17;3.40;;;6.50;99.90;;;;;;5019736;28;20926;-83
2023/03/17 05:45:52;;;;;;;5.83;3.47;;;6.40;1.00;;;;;;5023290;28;20268;-83
2023/03/17 05:48:21;;;;;;;5.77;3.90;;;6.50;99.90;;;;;;5016776;28;20208;-83
2023/03/17 05:50:48;;;;;;;6.33;3.73;;;6.40;1.00;;;;;;5022801;28;20216;-82
2023/03/17 05:53:16;;;;;;;7.27;3.20;;;6.40;1.00;;;;;;5021676;28;20228;-83
2023/03/17 05:55:43;;;;;;;6.30;3.73;;;6.30;1.00;;;;;;5021181;28;20201;-82
2023/03/17 05:58:10;;;;;;;5.23;3.40;;;6.30;1.00;;;;;;5022218;28;20216;-82
2023/03/17 06:00:37;;;;;;;5.10;3.37;;;6.30;1.00;;;;;;5018967;28;20214;-82
2023/03/17 06:03:04;;;;;;;5.83;3.30;;;6.20;1.00;;;;;;5027021;28;20288;-82
2023/03/17 06:05:33;;;;;;;5.40;3.50;;;6.50;1.00;;;;;;5014259;28;20213;-82
2023/03/17 06:08:00;;;;;;;6.90;3.80;;;6.50;99.90;;;;;;5014681;28;20205;-82
2023/03/17 06:10:27;;;;;;;6.40;3.77;;;7.10;99.90;;;;;;5026410;28;20621;-82
2023/03/17 06:12:54;;;;;;;7.03;3.67;;;7.00;99.90;;;;;;5020361;28;20236;-83
2023/03/17 06:15:21;;;;;;;5.90;3.57;;;7.20;99.90;;;;;;5026548;28;20270;-83
2023/03/17 06:17:48;;;;;;;6.17;3.53;;;6.90;99.90;;;;;;5023425;28;20303;-82
2023/03/17 06:20:15;;;;;;;6.30;3.73;;;6.40;1.00;;;;;;5024305;28;20208;-82
2023/03/17 06:22:44;;;;;;;7.90;3.77;;;5.90;1.00;;;;;;5025819;28;20244;-83
2023/03/17 06:25:12;;;;;;;7.57;3.60;;;5.70;1.00;;;;;;5025046;28;20231;-83
2023/03/17 06:27:39;;;;;;;6.17;3.67;;;5.80;99.90;;;;;;5027299;28;20291;-83
2023/03/17 06:30:08;;;;;;;7.03;3.67;;;5.90;1.00;;;;;;5011497;28;20211;-82
2023/03/17 06:32:35;;;;;;;6.87;3.43;;;6.00;99.90;;;;;;5021076;28;20221;-82
2023/03/17 06:35:04;;;;;;;4.60;3.17;;;6.10;1.00;;;;;;5011219;28;20274;-82
2023/03/17 06:37:31;;;;;;;5.90;3.40;;;6.20;1.00;;;;;;5015070;28;20222;-82
2023/03/17 06:39:59;;;;;;;6.27;3.53;;;6.40;1.00;;;;;;5017216;28;20235;-82
2023/03/17 06:42:27;;;;;;;4.90;3.27;;;6.90;1.00;;;;;;5021464;28;20315;-83
2023/03/17 06:44:54;;;;;;;6.67;3.27;;;7.00;1.00;;;;;;5026087;28;20208;-82
2023/03/17 06:47:21;;;;;;;5.10;3.20;;;7.10;1.00;;;;;;5020203;28;20207;-82
2023/03/17 06:49:48;;;;;;;7.03;3.50;;;7.60;99.90;;;;;;5019395;28;20207;-81
2023/03/17 06:52:15;;;;;;;6.13;3.23;;;7.90;99.90;;;;;;5019201;28;20216;-82
2023/03/17 06:54:41;;;;;;;4.60;3.30;;;8.10;93.70;;;;;;5007505;28;20314;-83
2023/03/17 06:57:10;;;;;;;6.10;3.27;;;8.20;2.40;;;;;;5022735;28;20198;-82
2023/03/17 06:59:36;;;;;;;5.67;3.30;;;8.30;1.00;;;;;;5019632;28;20204;-82
2023/03/17 07:02:04;;;;;;;4.70;2.73;;;8.20;50.70;;;;;;5017441;28;20223;-81
2023/03/17 07:04:31;;;;;;;5.60;3.30;;;8.30;22.90;;;;;;5025347;28;20204;-83
2023/03/17 07:06:58;;;;;;;5.60;3.30;;;8.40;99.90;;;;;;5030217;28;20265;-82
2023/03/17 07:09:24;;;;;;;5.63;3.20;;;8.40;99.90;;;;;;5011875;28;20211;-81
2023/03/17 07:11:51;;;;;;;4.43;3.37;;;8.50;94.00;;;;;;5033291;28;20249;-83
2023/03/17 07:14:19;;;;;;;4.10;2.87;;;9.00;99.90;;;;;;5027980;28;20224;-82
2023/03/17 07:16:47;;;;;;;5.73;3.30;;;9.20;99.90;;;;;;5025888;28;20204;-82
2023/03/17 07:19:14;;;;;;;6.23;3.23;;;9.30;99.90;;;;;;5021940;28;20591;-82
2023/03/17 07:21:41;;;;;;;7.70;3.43;;;9.90;1.00;;;;;;5026741;28;20224;-83
2023/03/17 07:24:08;;;;;;;4.23;2.90;;;10.20;1.00;;;;;;5013184;28;20205;-82
2023/03/17 07:26:36;;;;;;;4.53;3.10;;;10.00;1.00;;;;;;5016904;28;20232;-82
2023/03/17 07:29:03;;;;;;;6.60;3.40;;;10.00;1.00;;;;;;5033027;28;20219;-82
2023/03/17 07:31:31;;;;;;;4.13;2.80;;;9.80;1.00;;;;;;5021098;28;20228;-84
2023/03/17 07:33:57;;;;;;;6.10;3.17;;;10.10;1.00;;;;;;5014470;28;20598;-83
2023/03/17 07:36:25;;;;;;;5.60;3.03;;;10.00;1.00;;;;;;5018212;28;20287;-83
2023/03/17 07:38:52;;;;;;;3.87;2.80;;;10.00;1.00;;;;;;5022323;28;20668;-83
2023/03/17 07:41:18;;;;;;;4.07;2.93;;;10.40;1.00;;;;;;5023933;28;20311;-83
2023/03/17 07:43:47;;;;;;;7.37;3.80;;;10.30;1.00;;;;;;5023935;28;20291;-82
2023/03/17 07:46:14;;;;;;;3.30;2.40;;;11.10;49.10;;;;;;5020648;28;20204;-83
2023/03/17 07:48:43;;;;;;;4.13;2.70;;;11.70;1.00;;;;;;5026801;28;20227;-82
2023/03/17 07:51:15;;;;;;;6.60;2.90;;;11.20;1.00;;;;;;5029783;28;20699;-82
2023/03/17 07:53:42;;;;;;;4.33;3.10;;;11.30;1.00;;;;;;5027422;28;20234;-83
2023/03/17 07:56:09;;;;;;;4.87;2.70;;;11.10;1.00;;;;;;5027299;28;20264;-82
2023/03/17 07:58:37;;;;;;;3.73;2.77;;;11.00;1.00;;;;;;5022741;28;20205;-82
2023/03/17 08:01:03;;;;;;;4.07;3.00;;;11.20;1.00;;;;;;5015644;28;20228;-83
2023/03/17 08:03:30;;;;;;;3.33;2.60;;;11.30;53.60;;;;;;5021118;28;20268;-83
2023/03/17 08:05:59;;;;;;;4.27;2.60;;;11.70;5.90;;;;;;5019464;28;20207;-83
2023/03/17 08:08:27;;;;;;;5.03;2.87;;;11.60;1.00;;;;;;5023238;28;20247;-83
2023/03/17 08:11:00;;;;;;;4.30;2.90;;;11.60;1.00;;;;;;5020071;28;20205;-83
2023/03/17 08:13:27;;;;;;;3.73;2.50;;;12.10;1.00;;;;;;5026163;28;20304;-83
2023/03/17 08:15:54;;;;;;;4.97;3.10;;;12.50;3.80;;;;;;5008568;28;20208;-84
2023/03/17 08:18:21;;;;;;;3.33;2.73;;;13.30;88.40;;;;;;5031644;28;20219;-83
2023/03/17 08:20:49;;;;;;;4.80;2.93;;;13.20;17.90;;;;;;5025328;28;20232;-83
2023/03/17 08:23:17;;;;;;;3.97;2.90;;;12.50;1.00;;;;;;5034506;28;20207;-83
2023/03/17 08:25:44;;;;;;;3.67;2.60;;;12.40;1.00;;;;;;5028892;28;20255;-83
2023/03/17 08:28:11;;;;;;;4.57;2.70;;;12.60;1.00;;;;;;5026610;28;20212;-84
2023/03/17 08:30:38;;;;;;;3.53;2.60;;;12.60;1.00;;;;;;5023511;28;20205;-83
2023/03/17 08:33:05;;;;;;;4.60;2.90;;;12.60;1.00;;;;;;5023256;28;20201;-84
2023/03/17 08:35:32;;;;;;;4.03;2.37;;;12.70;1.00;;;;;;5020110;28;20224;-84
2023/03/17 08:37:59;;;;;;;3.47;2.30;;;13.10;1.00;;;;;;5023077;28;20228;-83
2023/03/17 08:40:27;;;;;;;4.50;2.67;;;13.40;1.00;;;;;;5026384;28;20247;-83
2023/03/17 08:42:54;;;;;;;6.27;3.93;;;13.00;1.00;;;;;;5028505;28;20227;-83
2023/03/17 08:45:21;;;;;;;7.33;4.13;;;13.30;1.00;;;;;;5030112;28;20224;-83
2023/03/17 08:47:48;;;;;;;4.57;2.40;;;13.20;1.00;;;;;;5030784;28;20225;-83
2023/03/17 08:50:18;;;;;;;4.33;2.83;;;13.20;1.00;;;;;;5029531;28;20222;-83
2023/03/17 08:52:47;;;;;;;2.77;2.10;;;13.20;1.00;;;;;;5024179;28;20252;-83
2023/03/17 08:55:15;;;;;;;3.40;2.30;;;13.20;1.00;;;;;;5025379;28;20730;-84
2023/03/17 08:57:43;;;;;;;4.00;2.73;;;13.20;1.00;;;;;;5025884;28;20295;-84
2023/03/17 09:00:12;;;;;;;4.23;2.50;;;13.20;1.00;;;;;;5024839;28;20299;-84
2023/03/17 09:02:41;;;;;;;3.67;2.40;;;13.70;1.00;;;;;;5023476;28;20220;-84
2023/03/17 09:05:09;;;;;;;3.67;2.20;;;13.90;1.00;;;;;;5025501;28;20207;-84
2023/03/17 09:07:36;;;;;;;5.07;2.20;;;13.80;1.00;;;;;;5022262;28;20582;-84
2023/03/17 09:10:04;;;;;;;2.40;2.20;;;14.50;1.00;;;;;;5010031;28;20299;-83
2023/03/17 09:12:31;;;;;;;2.33;1.93;;;14.20;1.00;;;;;;5025012;28;20234;-84
2023/03/17 09:14:59;;;;;;;3.40;2.20;;;14.40;1.00;;;;;;5033364;28;20465;-84
2023/03/17 09:17:27;;;;;;;3.70;2.43;;;14.30;1.00;;;;;;5017510;28;20216;-83
2023/03/17 09:19:54;;;;;;;3.27;2.47;;;14.10;1.00;;;;;;5022696;28;20268;-83
2023/03/17 09:22:20;;;;;;;3.53;2.28;;;14.30;1.00;;;;;;5027253;28;20267;-82
2023/03/17 09:24:47;;;;;;;2.38;2.05;;;14.00;1.00;;;;;;5017840;28;20291;-84
2023/03/17 09:27:14;;;;;;;3.42;2.42;;;14.20;1.00;;;;;;5019907;28;20204;-82
2023/03/17 09:29:42;;;;;;;3.65;2.22;;;14.20;1.00;;;;;;5028189;28;20587;-83
2023/03/17 09:32:10;;;;;;;1.73;1.60;;;14.50;1.00;;;;;;5024905;28;20242;-83
2023/03/17 09:34:38;;;;;;;2.25;1.92;;;14.60;1.00;;;;;;5022910;28;20287;-84
2023/03/17 09:37:05;;;;;;;3.50;1.98;;;14.60;1.00;;;;;;5037696;28;20267;-84
2023/03/17 09:39:32;;;;;;;3.33;2.00;;;14.90;1.00;;;;;;5014973;28;20291;-84
2023/03/17 09:42:15;;;;;;;3.28;2.17;;;15.10;1.00;;;;;;5028495;28;20310;-82
2023/03/17 09:45:01;;;;;;;3.67;2.40;;;14.90;1.00;;;;;;5025887;28;20200;-84
2023/03/17 09:47:47;;;;;;;2.35;2.15;;;14.40;1.00;;;;;;5027769;28;20287;-83
2023/03/17 09:50:19;;;;;;;3.95;2.72;;;14.40;1.00;;;;;;5020356;28;20239;-83
2023/03/17 09:52:46;;;;;;;3.28;2.33;;;14.30;1.00;;;;;;5027619;28;20224;-82
2023/03/17 09:55:22;;;;;;;5.10;2.95;;;14.50;1.00;;;;;;5027030;28;20228;-83
2023/03/17 09:57:53;;;;;;;6.18;2.53;;;14.40;1.00;;;;;;5030118;28;20210;-83
2023/03/17 10:00:25;;;;;;;1.90;1.75;;;14.70;1.00;;;;;;5019022;28;20215;-83
2023/03/17 10:02:54;;;;;;;2.83;2.20;;;14.60;1.00;;;;;;5030922;28;20244;-83
2023/03/17 10:05:23;;;;;;;2.95;2.15;;;15.00;1.00;;;;;;5014121;28;20200;-84
2023/03/17 10:08:01;;;;;;;3.10;2.20;;;15.00;1.00;;;;;;5023099;28;20219;-84
2023/03/17 10:10:35;;;;;;;3.20;2.20;;;14.80;1.00;;;;;;5029692;28;20295;-84
2023/03/17 10:13:09;;;;;;;2.53;2.20;;;14.90;1.00;;;;;;5016703;28;20225;-84
2023/03/17 10:15:41;;;;;;;3.00;2.10;;;14.50;1.00;;;;;;5031776;28;20232;-84
2023/03/17 10:18:13;;;;;;;3.78;2.30;;;14.70;1.00;;;;;;5022036;28;20216;-84
2023/03/17 10:20:48;;;;;;;2.28;2.03;;;14.80;1.00;;;;;;5030599;28;20267;-84
2023/03/17 10:23:17;;;;;;;3.83;2.35;;;15.10;1.00;;;;;;5018330;28;20295;-83
2023/03/17 10:25:45;;;;;;;2.97;2.33;;;15.10;1.00;;;;;;5022574;28;20211;-83
2023/03/17 10:28:23;;;;;;;2.05;1.85;;;15.30;1.00;;;;;;5029797;28;20208;-83
2023/03/17 10:30:51;;;;;;;3.00;2.15;;;15.00;1.00;;;;;;5020798;28;20200;-84
2023/03/17 10:33:20;;;;;;;4.45;2.10;;;15.10;1.00;;;;;;5017735;28;20200;-83
2023/03/17 10:35:47;;;;;;;3.28;2.22;;;15.00;99.90;;;;;;5028797;28;20708;-83
2023/03/17 10:38:15;;;;;;;3.50;2.38;;;14.90;99.90;;;;;;5027907;28;20204;-83
2023/03/17 10:40:46;;;;;;;4.28;2.35;;;14.50;99.90;;;;;;5016026;28;20663;-83
2023/03/17 10:43:18;;;;;;;3.13;2.40;;;14.50;99.90;;;;;;5025674;28;20214;-83
2023/03/17 10:45:54;;;;;;;2.42;2.17;;;15.00;99.90;;;;;;5016718;28;20223;-83
2023/03/17 10:48:23;;;;;;;4.57;2.00;;;15.00;99.90;;;;;;5018896;28;20695;-83
2023/03/17 10:50:51;;;;;;;4.43;2.22;;;15.30;99.90;;;;;;5025232;28;20235;-84
2023/03/17 10:53:26;;;;;;;2.85;1.98;;;15.50;99.90;;;;;;5024932;28;20204;-84
2023/03/17 10:55:56;;;;;;;2.58;2.10;;;15.60;99.90;;;;;;5017244;28;20300;-83
2023/03/17 10:58:37;;;;;;;3.35;2.20;;;15.60;99.90;;;;;;5032412;28;20606;-83
2023/03/17 11:01:07;;;;;;;2.55;2.33;;;15.50;99.90;;;;;;5017171;28;20227;-84
2023/03/17 11:03:39;;;;;;;3.45;2.45;;;15.60;99.90;;;;;;5026336;28;20212;-83
2023/03/17 11:06:09;;;;;;;2.95;2.17;;;15.90;99.90;;;;;;5024492;28;20223;-83
2023/03/17 11:08:39;;;;;;;2.35;1.80;;;16.20;99.90;;;;;;5020814;28;20669;-84
2023/03/17 11:11:09;;;;;;;2.92;2.20;;;16.10;99.90;;;;;;5023552;28;20254;-84
2023/03/17 11:13:36;;;;;;;2.80;2.10;;;16.20;99.90;;;;;;5027060;28;20290;-84
2023/03/17 11:16:10;;;;;;;3.22;2.10;;;16.30;99.90;;;;;;5033624;28;20231;-84
2023/03/17 11:18:40;;;;;;;4.40;2.25;;;16.40;99.90;;;;;;5030390;28;20600;-84
2023/03/17 11:21:10;;;;;;;4.00;2.45;;;16.50;99.90;;;;;;5016758;28;20227;-82
2023/03/17 11:23:50;;;;;;;3.00;2.17;;;16.70;99.90;;;;;;5024458;28;20200;-82
2023/03/17 11:26:36;;;;;;;4.38;2.30;;;16.90;99.90;;;;;;5015287;28;20571;-82
2023/03/17 11:29:24;;;;;;;2.50;2.10;;;17.00;99.90;;;;;;5017562;28;20295;-82
2023/03/17 11:31:59;;;;;;;2.85;2.17;;;17.20;99.90;;;;;;5032181;28;20227;-85
2023/03/17 11:34:40;;;;;;;3.65;2.03;;;17.40;99.90;;;;;;5010340;28;20239;-83
2023/03/17 11:37:21;;;;;;;4.57;2.40;;;16.90;99.90;;;;;;5016415;28;20219;-84
2023/03/17 11:39:55;;;;;;;4.40;2.70;;;16.70;99.90;;;;;;5025272;28;20211;-84
2023/03/17 11:42:26;;;;;;;2.65;2.00;;;17.10;99.90;;;;;;5025328;28;20692;-84
2023/03/17 11:45:14;;;;;;;4.78;2.22;;;17.20;99.90;;;;;;5033152;28;20213;-84
2023/03/17 11:47:53;;;;;;;3.28;1.90;;;17.50;99.90;;;;;;5021280;28;20212;-83
2023/03/17 11:50:30;;;;;;;6.50;4.15;;;17.50;99.90;;;;;;5024831;28;20204;-83
2023/03/17 11:53:13;;;;;;;5.18;2.70;;;17.80;99.90;;;;;;5020578;28;20254;-83
2023/03/17 11:55:45;;;;;;;2.53;1.90;;;17.20;99.90;;;;;;5032348;28;20219;-83
2023/03/17 11:58:19;;;;;;;2.30;2.10;;;17.30;99.90;;;;;;5014126;28;20212;-83
2023/03/17 12:00:52;;;;;;;5.55;2.47;;;17.40;99.90;;;;;;5023854;28;20208;-83
2023/03/17 12:03:26;;;;;;;4.97;2.05;;;17.30;89.40;;;;;;5019889;28;20208;-83
2023/03/17 12:05:58;;;;;;;3.28;2.17;;;17.50;66.80;;;;;;5019091;28;20204;-84
2023/03/17 12:08:34;;;;;;;2.65;1.98;;;17.80;78.80;;;;;;5031309;28;20269;-84
2023/03/17 12:11:09;;;;;;;3.78;1.95;;;17.70;35.50;;;;;;5018721;28;20216;-84
2023/03/17 12:13:41;;;;;;;2.33;2.13;;;17.20;1.00;;;;;;5014096;28;20200;-83
2023/03/17 12:16:13;;;;;;;3.38;2.30;;;17.70;1.00;;;;;;5019463;28;20213;-84
2023/03/17 12:18:45;;;;;;;2.35;2.15;;;17.80;5.60;;;;;;5023803;28;20307;-84
2023/03/17 12:21:21;;;;;;;3.78;2.10;;;17.80;1.00;;;;;;5028770;28;20228;-83
2023/03/17 12:23:49;;;;;;;4.30;2.28;;;17.70;1.00;;;;;;5016353;28;20458;-83
2023/03/17 12:26:19;;;;;;;5.68;2.30;;;17.50;1.00;;;;;;5027716;28;20211;-83
2023/03/17 12:28:51;;;;;;;4.25;2.28;;;17.10;1.00;;;;;;5021609;28;20209;-84
2023/03/17 12:31:22;;;;;;;3.58;2.38;;;17.10;1.00;;;;;;5022554;28;20227;-83
2023/03/17 12:33:57;;;;;;;2.60;2.10;;;17.20;1.00;;;;;;5030773;28;20203;-83
2023/03/17 12:36:26;;;;;;;6.18;2.15;;;17.10;1.00;;;;;;5030936;28;20227;-83
2023/03/17 12:39:00;;;;;;;4.05;2.08;;;17.20;1.00;;;;;;5020178;28;20220;-84
2023/03/17 12:41:52;;;;;;;6.63;2.85;;;17.50;1.00;;;;;;5028609;28;20255;-84
2023/03/17 12:44:33;;;;;;;1.92;1.75;;;17.70;1.00;;;;;;5017404;28;20204;-84
2023/03/17 12:47:23;;;;;;;2.42;1.85;;;17.70;1.00;;;;;;5023072;28;20723;-84
2023/03/17 12:50:05;;;;;;;2.30;2.00;;;17.80;1.00;;;;;;5026597;28;20208;-84
2023/03/17 12:52:45;;;;;;;3.35;1.90;;;17.90;1.00;;;;;;5021867;28;20260;-84
2023/03/17 12:55:15;;;;;;;2.50;1.85;;;17.60;1.00;;;;;;5021431;28;20234;-84
2023/03/17 12:57:43;;;;;;;2.50;2.10;;;17.50;1.00;;;;;;5018946;28;20212;-82
2023/03/17 13:00:23;;;;;;;2.55;1.90;;;17.50;1.00;;;;;;5024146;28;20205;-84
2023/03/17 13:02:52;;;;;;;2.40;1.60;;;17.70;1.00;;;;;;5025781;28;20227;-85
2023/03/17 13:05:32;;;;;;;4.10;2.30;;;17.70;1.00;;;;;;5019558;28;20242;-85
2023/03/17 13:08:04;;;;;;;3.05;2.47;;;17.40;1.00;;;;;;5001256;28;20205;-84
2023/03/17 13:10:40;;;;;;;3.25;1.90;;;17.60;1.00;;;;;;5000300;28;20208;-83